Time;durP1;ratioP1;P1;durP2;ratioP2;P2;SDS_P1;SDS_P2;PMS_P1;PMS_P2;Temp;Humidity;BMP_temperature;BMP_pressure;BME280_temperature;BME280_humidity;BME280_pressure;Samples;Min_cycle;Max_cycle;Signal;HPM_P1;HPM_P2
2021/08/17 00:00:12;;;;;;;4.60;3.63;;;;;;;;;;5052649;28;20454;-71
2021/08/17 00:02:38;;;;;;;3.30;2.30;;;;;;;;;;5052601;28;20442;-71
2021/08/17 00:05:04;;;;;;;5.40;3.60;;;;;;;;;;5052699;28;20420;-71
2021/08/17 00:10:34;;;;;;;4.27;3.20;;;;;;;;;;5052462;28;20406;-71
2021/08/17 00:13:00;;;;;;;4.17;3.47;;;;;;;;;;5048414;28;20536;-71
2021/08/17 00:15:26;;;;;;;6.07;3.37;;;;;;;;;;5052556;28;20412;-71
2021/08/17 00:17:52;;;;;;;3.90;2.97;;;;;;;;;;5052543;28;20430;-71
2021/08/17 00:20:18;;;;;;;5.80;3.30;;;;;;;;;;5052427;28;20412;-70
2021/08/17 00:25:47;;;;;;;8.30;3.13;;;;;;;;;;5052229;28;20413;-70
2021/08/17 00:28:13;;;;;;;4.13;3.20;;;;;;;;;;5052378;28;20399;-71
2021/08/17 00:30:39;;;;;;;5.03;3.70;;;;;;;;;;5052537;28;20415;-71
2021/08/17 00:33:05;;;;;;;5.50;4.00;;;;;;;;;;5052274;28;20427;-71
2021/08/17 00:35:31;;;;;;;4.60;3.50;;;;;;;;;;5052274;28;20954;-71
2021/08/17 00:41:01;;;;;;;4.47;3.77;;;;;;;;;;5052184;28;20798;-71
2021/08/17 00:43:27;;;;;;;5.30;3.57;;;;;;;;;;5052547;28;20446;-71
2021/08/17 00:45:53;;;;;;;5.50;3.90;;;;;;;;;;5052222;28;20418;-71
2021/08/17 00:48:19;;;;;;;3.70;3.40;;;;;;;;;;5052300;28;20408;-71
2021/08/17 00:50:46;;;;;;;5.23;3.03;;;;;;;;;;5052238;28;20823;-71
2021/08/17 00:56:15;;;;;;;4.53;3.07;;;;;;;;;;5052006;28;20442;-71
2021/08/17 00:58:41;;;;;;;4.50;3.47;;;;;;;;;;5052221;28;20419;-71
2021/08/17 01:01:07;;;;;;;4.50;3.63;;;;;;;;;;5052024;28;20411;-71
2021/08/17 01:03:36;;;;;;;4.10;3.27;;;;;;;;;;5051843;28;20422;-72
2021/08/17 01:06:03;;;;;;;5.03;2.80;;;;;;;;;;5055870;28;20811;-72
2021/08/17 01:08:29;;;;;;;6.33;3.40;;;;;;;;;;5055865;28;20403;-73
2021/08/17 01:10:55;;;;;;;7.23;4.03;;;;;;;;;;5055500;28;20407;-73
2021/08/17 01:13:23;;;;;;;11.83;4.27;;;;;;;;;;5055443;28;20446;-71
2021/08/17 01:15:49;;;;;;;4.13;3.27;;;;;;;;;;5055772;28;20423;-71
2021/08/17 01:18:15;;;;;;;4.50;3.50;;;;;;;;;;5055483;28;20792;-71
2021/08/17 01:20:42;;;;;;;5.40;3.37;;;;;;;;;;5055776;28;20416;-71
2021/08/17 01:26:11;;;;;;;6.07;3.37;;;;;;;;;;5055073;28;20414;-71
2021/08/17 01:28:37;;;;;;;3.47;2.50;;;;;;;;;;5055527;28;20800;-71
2021/08/17 01:31:07;;;;;;;6.77;3.90;;;;;;;;;;5055407;28;20533;-71
2021/08/17 01:33:34;;;;;;;8.90;4.53;;;;;;;;;;5055127;28;20423;-72
2021/08/17 01:36:03;;;;;;;6.60;3.90;;;;;;;;;;5054972;28;20455;-71
2021/08/17 01:41:32;;;;;;;5.40;3.33;;;;;;;;;;5054925;28;20496;-71
2021/08/17 01:43:58;;;;;;;4.00;3.23;;;;;;;;;;5054988;28;20549;-72
2021/08/17 01:46:24;;;;;;;4.70;3.00;;;;;;;;;;5055300;28;20918;-72
2021/08/17 01:48:50;;;;;;;4.00;3.37;;;;;;;;;;5054662;28;20429;-71
2021/08/17 01:51:16;;;;;;;6.70;4.20;;;;;;;;;;5054595;28;20838;-71
2021/08/17 01:56:46;;;;;;;5.63;3.70;;;;;;;;;;5054579;28;20513;-72
2021/08/17 01:59:13;;;;;;;5.23;3.00;;;;;;;;;;5054776;28;20415;-71
2021/08/17 02:01:41;;;;;;;5.50;3.00;;;;;;;;;;5054614;28;20490;-71
2021/08/17 02:04:07;;;;;;;7.47;4.00;;;;;;;;;;5054686;28;20425;-72
2021/08/17 02:06:33;;;;;;;5.17;3.13;;;;;;;;;;5054560;28;20403;-72
2021/08/17 02:09:01;;;;;;;7.80;4.00;;;;;;;;;;5054860;28;20465;-72
2021/08/17 02:11:27;;;;;;;5.10;4.03;;;;;;;;;;5054210;28;20450;-72
2021/08/17 02:13:53;;;;;;;3.60;3.00;;;;;;;;;;5054578;28;20468;-72
2021/08/17 02:16:19;;;;;;;5.40;3.70;;;;;;;;;;5054048;28;20507;-71
2021/08/17 02:18:45;;;;;;;4.63;4.07;;;;;;;;;;5054753;28;20463;-71
2021/08/17 02:21:11;;;;;;;4.80;3.53;;;;;;;;;;5054360;28;20447;-71
2021/08/17 02:26:40;;;;;;;5.80;4.00;;;;;;;;;;5053979;28;20422;-71
2021/08/17 02:29:06;;;;;;;3.80;3.30;;;;;;;;;;5054491;28;20423;-71
2021/08/17 02:31:32;;;;;;;4.73;3.87;;;;;;;;;;5054223;28;20813;-71
2021/08/17 02:33:58;;;;;;;4.90;3.27;;;;;;;;;;5054121;28;20415;-71
2021/08/17 02:36:24;;;;;;;5.13;3.27;;;;;;;;;;5053827;28;20525;-71
2021/08/17 02:41:53;;;;;;;4.53;2.90;;;;;;;;;;5053711;28;20515;-71
2021/08/17 02:44:19;;;;;;;4.47;3.40;;;;;;;;;;5053887;28;20442;-71
2021/08/17 02:46:45;;;;;;;3.80;3.10;;;;;;;;;;5054076;28;21000;-71
2021/08/17 02:49:11;;;;;;;4.87;3.53;;;;;;;;;;5053884;28;20427;-71
2021/08/17 02:51:37;;;;;;;7.50;4.47;;;;;;;;;;5053691;28;20502;-71
2021/08/17 02:57:10;;;;;;;8.43;3.47;;;;;;;;;;5053388;28;20410;-71
2021/08/17 02:59:36;;;;;;;7.03;3.40;;;;;;;;;;5053552;28;20925;-71
2021/08/17 03:02:03;;;;;;;6.03;3.23;;;;;;;;;;5053526;28;20494;-72
2021/08/17 03:04:29;;;;;;;7.97;3.27;;;;;;;;;;5053748;28;20769;-71
2021/08/17 03:06:55;;;;;;;7.00;4.20;;;;;;;;;;5053297;28;20457;-71
2021/08/17 03:09:21;;;;;;;5.17;3.37;;;;;;;;;;5053381;28;20411;-71
2021/08/17 03:11:47;;;;;;;4.53;3.20;;;;;;;;;;5051701;28;20481;-71
2021/08/17 03:14:13;;;;;;;5.50;3.77;;;;;;;;;;5053513;28;20411;-71
2021/08/17 03:16:40;;;;;;;7.57;3.33;;;;;;;;;;5053386;28;20801;-71
2021/08/17 03:19:06;;;;;;;6.90;3.20;;;;;;;;;;5053419;28;20450;-71
2021/08/17 03:21:33;;;;;;;4.70;3.57;;;;;;;;;;5053072;28;20435;-71
2021/08/17 03:27:02;;;;;;;3.90;3.20;;;;;;;;;;5052305;28;20409;-70
2021/08/17 03:29:28;;;;;;;5.53;3.53;;;;;;;;;;5052547;28;20426;-70
2021/08/17 03:31:54;;;;;;;4.70;3.10;;;;;;;;;;5052932;28;20471;-71
2021/08/17 03:34:20;;;;;;;4.53;3.47;;;;;;;;;;5052737;28;20501;-71
2021/08/17 03:36:46;;;;;;;5.60;3.60;;;;;;;;;;5052805;28;20434;-70
2021/08/17 03:42:16;;;;;;;5.53;2.83;;;;;;;;;;5052566;28;20406;-71
2021/08/17 03:44:42;;;;;;;5.50;3.53;;;;;;;;;;5052813;28;20802;-70
2021/08/17 03:47:08;;;;;;;5.40;3.20;;;;;;;;;;5052702;28;20410;-70
2021/08/17 03:49:34;;;;;;;6.37;3.33;;;;;;;;;;5052815;28;20422;-71
2021/08/17 03:52:00;;;;;;;7.77;4.30;;;;;;;;;;5052434;28;20462;-71
2021/08/17 03:57:30;;;;;;;5.10;3.80;;;;;;;;;;5052650;28;20459;-70
2021/08/17 03:59:56;;;;;;;4.60;3.80;;;;;;;;;;5051994;28;20419;-71
2021/08/17 04:02:22;;;;;;;6.03;4.40;;;;;;;;;;5052538;28;20456;-71
2021/08/17 04:04:49;;;;;;;4.80;3.33;;;;;;;;;;5049787;28;20414;-71
2021/08/17 04:07:15;;;;;;;8.70;3.30;;;;;;;;;;5052435;28;20443;-71
2021/08/17 04:09:41;;;;;;;7.17;3.73;;;;;;;;;;5052508;28;20465;-71
2021/08/17 04:12:07;;;;;;;6.97;3.20;;;;;;;;;;5052156;28;20466;-71
2021/08/17 04:14:33;;;;;;;4.07;3.07;;;;;;;;;;5052451;28;20414;-70
2021/08/17 04:16:59;;;;;;;7.30;4.10;;;;;;;;;;5052188;28;20453;-71
2021/08/17 04:19:25;;;;;;;5.23;3.17;;;;;;;;;;5052389;28;20406;-71
2021/08/17 04:21:51;;;;;;;4.63;3.30;;;;;;;;;;5052275;28;20431;-71
2021/08/17 04:27:21;;;;;;;5.33;3.53;;;;;;;;;;5051829;28;20771;-71
2021/08/17 04:29:48;;;;;;;4.50;3.43;;;;;;;;;;5052430;28;20490;-71
2021/08/17 04:32:14;;;;;;;8.83;4.77;;;;;;;;;;5052014;28;20472;-71
2021/08/17 04:34:40;;;;;;;8.93;5.30;;;;;;;;;;5052469;28;20546;-72
2021/08/17 04:37:06;;;;;;;7.37;3.97;;;;;;;;;;5052955;28;20425;-72
2021/08/17 04:42:35;;;;;;;7.40;3.43;;;;;;;;;;5056332;28;20413;-72
2021/08/17 04:45:01;;;;;;;6.83;4.13;;;;;;;;;;5056177;28;20417;-72
2021/08/17 04:47:27;;;;;;;6.00;4.20;;;;;;;;;;5055819;28;20417;-71
2021/08/17 04:49:53;;;;;;;5.87;4.30;;;;;;;;;;5055753;28;20959;-71
2021/08/17 04:52:19;;;;;;;5.90;4.10;;;;;;;;;;5055895;28;20612;-72
2021/08/17 04:57:50;;;;;;;5.60;4.00;;;;;;;;;;5055885;28;20927;-71
2021/08/17 05:00:16;;;;;;;4.17;3.53;;;;;;;;;;5055830;28;20468;-70
2021/08/17 05:02:42;;;;;;;5.57;3.90;;;;;;;;;;5054401;28;20901;-71
2021/08/17 05:05:08;;;;;;;5.50;3.63;;;;;;;;;;5054359;28;20422;-72
2021/08/17 05:13:42;;;;;;;5.40;4.13;;;;;;;;;;5055397;28;20475;-70
2021/08/17 05:16:08;;;;;;;6.40;3.63;;;;;;;;;;5055306;28;20418;-71
2021/08/17 05:18:34;;;;;;;4.97;3.40;;;;;;;;;;5055295;28;20441;-70
2021/08/17 05:21:00;;;;;;;4.00;3.50;;;;;;;;;;5055252;28;20412;-70
2021/08/17 05:23:27;;;;;;;5.73;4.60;;;;;;;;;;5055103;28;20419;-70
2021/08/17 05:25:53;;;;;;;7.43;5.50;;;;;;;;;;5054931;28;20465;-71
2021/08/17 05:28:19;;;;;;;5.33;4.83;;;;;;;;;;5054935;28;20434;-72
2021/08/17 05:30:45;;;;;;;4.70;3.80;;;;;;;;;;5055194;28;21025;-70
2021/08/17 05:33:11;;;;;;;4.50;3.47;;;;;;;;;;5054859;28;20474;-71
2021/08/17 05:35:38;;;;;;;4.73;3.63;;;;;;;;;;5054741;28;20474;-71
2021/08/17 05:38:05;;;;;;;4.13;3.30;;;;;;;;;;5053464;28;20537;-70
2021/08/17 05:40:31;;;;;;;6.23;3.57;;;;;;;;;;5054811;28;20411;-71
2021/08/17 05:42:57;;;;;;;5.23;4.30;;;;;;;;;;5054777;28;20446;-72
2021/08/17 05:45:23;;;;;;;8.13;4.20;;;;;;;;;;5054276;28;20469;-74
2021/08/17 05:47:49;;;;;;;10.60;4.17;;;;;;;;;;5054127;28;20455;-71
2021/08/17 05:50:16;;;;;;;4.70;3.67;;;;;;;;;;5053782;28;20418;-72
2021/08/17 05:52:42;;;;;;;6.57;3.37;;;;;;;;;;5053878;28;20565;-72
2021/08/17 05:58:11;;;;;;;7.40;3.50;;;;;;;;;;5054463;28;20780;-71
2021/08/17 06:00:37;;;;;;;5.77;3.63;;;;;;;;;;5054625;28;20502;-71
2021/08/17 06:03:03;;;;;;;5.17;2.93;;;;;;;;;;5054499;28;20778;-73
2021/08/17 06:05:29;;;;;;;6.10;3.83;;;;;;;;;;5054259;28;20469;-71
2021/08/17 06:07:55;;;;;;;4.73;3.40;;;;;;;;;;5054033;28;20813;-73
2021/08/17 06:10:21;;;;;;;5.50;3.77;;;;;;;;;;5054164;28;20420;-72
2021/08/17 06:12:47;;;;;;;4.13;3.73;;;;;;;;;;5054100;28;20467;-72
2021/08/17 06:15:15;;;;;;;5.07;3.47;;;;;;;;;;5053573;28;20411;-71
2021/08/17 06:17:41;;;;;;;6.90;3.50;;;;;;;;;;5053788;28;20500;-72
2021/08/17 06:20:08;;;;;;;5.13;3.63;;;;;;;;;;5054039;28;20423;-70
2021/08/17 06:22:35;;;;;;;5.07;3.40;;;;;;;;;;5054074;28;20924;-71
2021/08/17 06:28:11;;;;;;;5.63;3.27;;;;;;;;;;5053843;28;20497;-74
2021/08/17 06:30:39;;;;;;;4.03;3.00;;;;;;;;;;5053935;28;20407;-71
2021/08/17 06:33:05;;;;;;;8.13;3.80;;;;;;;;;;5053328;28;20490;-72
2021/08/17 06:35:31;;;;;;;4.80;3.77;;;;;;;;;;5054222;28;20988;-71
2021/08/17 06:37:57;;;;;;;4.50;3.77;;;;;;;;;;5053725;28;20920;-71
2021/08/17 06:43:29;;;;;;;4.93;3.60;;;;;;;;;;5053278;28;21060;-73
2021/08/17 06:45:55;;;;;;;9.93;4.17;;;;;;;;;;5053762;28;20413;-71
2021/08/17 06:48:21;;;;;;;6.47;3.97;;;;;;;;;;5053509;28;20454;-71
2021/08/17 06:50:47;;;;;;;4.87;3.67;;;;;;;;;;5048505;28;20434;-70
2021/08/17 06:53:13;;;;;;;6.50;4.23;;;;;;;;;;5053602;28;20546;-70
2021/08/17 06:55:39;;;;;;;6.30;3.77;;;;;;;;;;5053520;28;20994;-70
2021/08/17 06:58:07;;;;;;;4.60;3.60;;;;;;;;;;5053545;28;20502;-71
2021/08/17 07:00:33;;;;;;;5.97;4.07;;;;;;;;;;5052604;28;20446;-71
2021/08/17 07:02:59;;;;;;;6.77;4.17;;;;;;;;;;5051164;28;20411;-70
2021/08/17 07:05:25;;;;;;;6.63;4.17;;;;;;;;;;5052188;28;20415;-69
2021/08/17 07:07:51;;;;;;;6.60;3.77;;;;;;;;;;5052067;28;20485;-71
2021/08/17 07:13:21;;;;;;;5.17;3.83;;;;;;;;;;5052385;28;20484;-72
2021/08/17 07:15:47;;;;;;;10.93;4.87;;;;;;;;;;5052577;28;20801;-71
2021/08/17 07:18:13;;;;;;;4.13;3.67;;;;;;;;;;5052284;28;20552;-72
2021/08/17 07:20:40;;;;;;;4.20;3.80;;;;;;;;;;5052164;28;20407;-70
2021/08/17 07:23:06;;;;;;;9.27;4.17;;;;;;;;;;5052356;28;20781;-71
2021/08/17 07:28:35;;;;;;;5.97;3.93;;;;;;;;;;5052064;28;20586;-70
2021/08/17 07:31:01;;;;;;;6.40;4.10;;;;;;;;;;5051941;28;20482;-70
2021/08/17 07:33:27;;;;;;;5.73;4.67;;;;;;;;;;5051532;28;20568;-71
2021/08/17 07:35:53;;;;;;;4.53;4.13;;;;;;;;;;5051355;28;20520;-71
2021/08/17 07:38:19;;;;;;;6.20;4.37;;;;;;;;;;5051702;28;20952;-71
2021/08/17 07:43:49;;;;;;;5.17;4.07;;;;;;;;;;5052215;28;20449;-70
2021/08/17 07:46:15;;;;;;;4.67;4.10;;;;;;;;;;5052210;28;20480;-71
2021/08/17 07:48:41;;;;;;;7.30;4.57;;;;;;;;;;5052658;28;20441;-72
2021/08/17 07:51:07;;;;;;;6.00;4.37;;;;;;;;;;5050874;28;20473;-71
2021/08/17 07:53:33;;;;;;;6.43;4.23;;;;;;;;;;5050827;28;20441;-71
2021/08/17 07:59:04;;;;;;;7.33;3.90;;;;;;;;;;5051852;28;20465;-72
2021/08/17 08:01:30;;;;;;;7.83;5.20;;;;;;;;;;5051639;28;20415;-71
2021/08/17 08:03:57;;;;;;;7.13;5.30;;;;;;;;;;5051848;28;20423;-70
2021/08/17 08:06:24;;;;;;;7.20;5.13;;;;;;;;;;5051940;28;20427;-71
2021/08/17 08:08:50;;;;;;;4.10;3.43;;;;;;;;;;5051500;28;20450;-72
2021/08/17 08:11:15;;;;;;;5.43;4.53;;;;;;;;;;5050232;28;20590;-71
2021/08/17 08:13:41;;;;;;;5.70;4.13;;;;;;;;;;5051926;28;20423;-70
2021/08/17 08:16:07;;;;;;;7.77;4.50;;;;;;;;;;5055669;28;20403;-70
2021/08/17 08:18:33;;;;;;;5.17;4.30;;;;;;;;;;5055786;28;20403;-71
2021/08/17 08:20:59;;;;;;;5.07;4.17;;;;;;;;;;5055794;28;20814;-71
2021/08/17 08:23:25;;;;;;;5.33;4.83;;;;;;;;;;5055524;28;20494;-71
2021/08/17 08:28:55;;;;;;;9.13;4.57;;;;;;;;;;5055567;28;20409;-73
2021/08/17 08:31:21;;;;;;;5.93;4.30;;;;;;;;;;5053990;28;20466;-72
2021/08/17 08:33:47;;;;;;;6.00;4.60;;;;;;;;;;5055292;28;20518;-72
2021/08/17 08:36:13;;;;;;;6.93;5.33;;;;;;;;;;5055430;28;20509;-72
2021/08/17 08:38:39;;;;;;;8.87;5.07;;;;;;;;;;5058047;28;20417;-72
2021/08/17 08:44:10;;;;;;;11.03;5.90;;;;;;;;;;5055088;28;20425;-71
2021/08/17 08:46:36;;;;;;;5.87;4.50;;;;;;;;;;5055195;28;20452;-71
2021/08/17 08:49:03;;;;;;;7.63;5.37;;;;;;;;;;5055195;28;20461;-72
2021/08/17 08:51:29;;;;;;;6.77;5.00;;;;;;;;;;5055150;28;20863;-72
2021/08/17 08:59:46;;;;;;;5.10;4.53;;;;;;;;;;5055095;28;20564;-71
2021/08/17 09:02:13;;;;;;;4.87;4.20;;;;;;;;;;5055087;28;20410;-71
2021/08/17 09:04:48;;;;;;;5.23;4.60;;;;;;;;;;5055078;28;20407;-72
2021/08/17 09:07:14;;;;;;;4.87;4.33;;;;;;;;;;5054829;28;20920;-72
2021/08/17 09:09:40;;;;;;;4.87;3.97;;;;;;;;;;5054656;28;20411;-71
2021/08/17 09:12:06;;;;;;;4.70;4.20;;;;;;;;;;5054590;28;20467;-71
2021/08/17 09:14:33;;;;;;;8.83;3.83;;;;;;;;;;5054894;28;20449;-72
2021/08/17 09:17:04;;;;;;;5.30;4.23;;;;;;;;;;5054677;28;20413;-72
2021/08/17 09:19:32;;;;;;;4.90;3.93;;;;;;;;;;5054769;28;20410;-71
2021/08/17 09:22:01;;;;;;;6.50;4.60;;;;;;;;;;5054579;28;20468;-72
2021/08/17 09:24:29;;;;;;;6.10;3.90;;;;;;;;;;5054716;28;20419;-71
2021/08/17 09:26:57;;;;;;;5.67;4.50;;;;;;;;;;5052669;28;20419;-71
2021/08/17 09:29:27;;;;;;;3.87;3.27;;;;;;;;;;5053042;28;20580;-72
2021/08/17 09:31:54;;;;;;;5.30;4.33;;;;;;;;;;5054277;28;20500;-72
2021/08/17 09:34:21;;;;;;;4.83;4.27;;;;;;;;;;5054047;28;20468;-72
2021/08/17 09:36:48;;;;;;;5.60;4.87;;;;;;;;;;5054566;28;20435;-72
2021/08/17 09:39:32;;;;;;;6.13;4.33;;;;;;;;;;5054228;28;20415;-72
2021/08/17 09:42:11;;;;;;;5.43;3.50;;;;;;;;;;5054007;28;20395;-71
2021/08/17 09:44:37;;;;;;;6.07;4.33;;;;;;;;;;5052661;28;20431;-71
2021/08/17 09:47:04;;;;;;;7.73;3.67;;;;;;;;;;5052785;28;20435;-71
2021/08/17 09:49:30;;;;;;;4.40;3.90;;;;;;;;;;5054076;28;20919;-71
2021/08/17 09:52:08;;;;;;;4.60;3.93;;;;;;;;;;5053801;28;21012;-71
2021/08/17 09:54:37;;;;;;;4.57;4.17;;;;;;;;;;5054120;28;20480;-71
2021/08/17 09:57:04;;;;;;;5.83;4.10;;;;;;;;;;5053705;28;20414;-71
2021/08/17 09:59:32;;;;;;;5.10;3.80;;;;;;;;;;5053962;28;20450;-71
2021/08/17 10:01:59;;;;;;;9.37;4.97;;;;;;;;;;5053720;28;20861;-71
2021/08/17 10:04:25;;;;;;;6.03;4.00;;;;;;;;;;5054026;28;20513;-70
2021/08/17 10:06:52;;;;;;;6.33;4.50;;;;;;;;;;5053693;28;20765;-71
2021/08/17 10:09:18;;;;;;;5.17;4.67;;;;;;;;;;5053713;28;20414;-71
2021/08/17 10:11:44;;;;;;;6.80;4.27;;;;;;;;;;5053285;28;20547;-71
2021/08/17 10:14:11;;;;;;;4.97;3.90;;;;;;;;;;5053450;28;20766;-71
2021/08/17 10:16:37;;;;;;;5.03;3.97;;;;;;;;;;5053484;28;20407;-71
2021/08/17 10:19:03;;;;;;;7.83;3.70;;;;;;;;;;5053429;28;20502;-71
2021/08/17 10:21:29;;;;;;;5.40;4.40;;;;;;;;;;5053278;28;20403;-72
2021/08/17 10:23:55;;;;;;;7.73;4.20;;;;;;;;;;5050363;28;20455;-71
2021/08/17 10:29:26;;;;;;;5.20;3.77;;;;;;;;;;5053293;28;20414;-71
2021/08/17 10:31:52;;;;;;;4.20;3.80;;;;;;;;;;5053408;28;20477;-71
2021/08/17 10:34:18;;;;;;;3.20;2.80;;;;;;;;;;5053358;28;20766;-72
2021/08/17 10:36:45;;;;;;;5.30;3.17;;;;;;;;;;5052688;28;20438;-71
2021/08/17 10:39:17;;;;;;;4.20;3.37;;;;;;;;;;5053217;28;20411;-72
2021/08/17 10:44:46;;;;;;;4.60;3.10;;;;;;;;;;5052481;28;20422;-71
2021/08/17 10:47:28;;;;;;;4.33;3.30;;;;;;;;;;5052593;28;20415;-71
2021/08/17 10:49:54;;;;;;;6.13;3.40;;;;;;;;;;5052621;28;20498;-71
2021/08/17 10:52:28;;;;;;;4.57;3.33;;;;;;;;;;5054242;28;20563;-70
2021/08/17 10:55:13;;;;;;;3.20;2.87;;;;;;;;;;5053847;28;20515;-72
2021/08/17 10:57:52;;;;;;;4.60;3.60;;;;;;;;;;5052372;28;20411;-70
2021/08/17 11:00:50;;;;;;;5.23;4.13;;;;;;;;;;5052289;28;20528;-71
2021/08/17 11:03:36;;;;;;;5.90;3.57;;;;;;;;;;5029440;28;20454;-71
2021/08/17 11:06:03;;;;;;;6.73;3.37;;;;;;;;;;5052096;28;20505;-72
2021/08/17 11:08:32;;;;;;;4.23;3.50;;;;;;;;;;5052307;28;20403;-72
2021/08/17 11:11:18;;;;;;;4.97;3.07;;;;;;;;;;5052063;28;20411;-71
2021/08/17 11:14:03;;;;;;;4.40;3.07;;;;;;;;;;5051944;28;20641;-71
2021/08/17 11:16:29;;;;;;;7.37;3.40;;;;;;;;;;5052011;28;20549;-71
2021/08/17 11:18:56;;;;;;;3.70;3.13;;;;;;;;;;5051957;28;20407;-70
2021/08/17 11:21:36;;;;;;;7.10;3.47;;;;;;;;;;5051823;28;20477;-71
2021/08/17 11:24:08;;;;;;;4.70;3.70;;;;;;;;;;5051912;28;20492;-70
2021/08/17 11:26:35;;;;;;;3.70;2.80;;;;;;;;;;5051851;28;20418;-71
2021/08/17 11:29:01;;;;;;;5.43;2.97;;;;;;;;;;5051873;28;20414;-71
2021/08/17 11:31:27;;;;;;;3.53;2.80;;;;;;;;;;5051809;28;20463;-71
2021/08/17 11:34:12;;;;;;;5.20;3.57;;;;;;;;;;5051979;28;20415;-71
2021/08/17 11:36:38;;;;;;;3.57;2.53;;;;;;;;;;5051929;28;20458;-72
2021/08/17 11:39:17;;;;;;;3.90;3.30;;;;;;;;;;5052103;28;20472;-71
2021/08/17 11:41:43;;;;;;;4.37;3.07;;;;;;;;;;5051878;28;20417;-71
2021/08/17 11:44:12;;;;;;;3.47;2.87;;;;;;;;;;5051998;28;20403;-71
2021/08/17 11:46:38;;;;;;;4.60;3.63;;;;;;;;;;5052065;28;20419;-71
2021/08/17 11:49:20;;;;;;;4.17;3.60;;;;;;;;;;5051251;28;20415;-72
2021/08/17 11:51:46;;;;;;;4.20;3.80;;;;;;;;;;5051120;28;20516;-72
2021/08/17 11:54:14;;;;;;;4.53;3.23;;;;;;;;;;5051738;28;20453;-72
2021/08/17 11:56:40;;;;;;;3.43;2.90;;;;;;;;;;5051054;28;20490;-72
2021/08/17 11:59:06;;;;;;;4.10;3.13;;;;;;;;;;5051638;28;20454;-72
2021/08/17 12:01:32;;;;;;;4.83;3.70;;;;;;;;;;5051669;28;20411;-72
2021/08/17 12:04:08;;;;;;;4.30;3.57;;;;;;;;;;5051327;28;20889;-72
2021/08/17 12:06:34;;;;;;;4.37;3.60;;;;;;;;;;5051450;28;20411;-72
2021/08/17 12:09:19;;;;;;;6.67;4.30;;;;;;;;;;5051336;28;20557;-72
2021/08/17 12:12:01;;;;;;;5.60;4.00;;;;;;;;;;5049635;28;20466;-72
2021/08/17 12:14:26;;;;;;;8.03;3.70;;;;;;;;;;5051263;28;20419;-71
2021/08/17 12:16:56;;;;;;;5.57;4.43;;;;;;;;;;5051525;28;20488;-71
2021/08/17 12:19:22;;;;;;;5.93;4.17;;;;;;;;;;5051464;28;20423;-72
2021/08/17 12:21:49;;;;;;;6.63;4.20;;;;;;;;;;5051628;28;20422;-72
2021/08/17 12:24:22;;;;;;;5.03;3.80;;;;;;;;;;5051487;28;20750;-71
2021/08/17 12:26:54;;;;;;;5.40;4.10;;;;;;;;;;5051445;28;20502;-71
2021/08/17 12:29:23;;;;;;;5.20;3.60;;;;;;;;;;5051554;28;20490;-71
2021/08/17 12:31:50;;;;;;;4.70;3.97;;;;;;;;;;5051040;28;20810;-71
2021/08/17 12:34:16;;;;;;;4.83;4.10;;;;;;;;;;5051448;28;20423;-71
2021/08/17 12:36:44;;;;;;;4.57;3.93;;;;;;;;;;5051270;28;20470;-71
2021/08/17 12:39:13;;;;;;;5.77;4.40;;;;;;;;;;5051277;28;20411;-72
2021/08/17 12:41:41;;;;;;;4.17;3.57;;;;;;;;;;5050851;28;20411;-70
2021/08/17 12:44:19;;;;;;;4.90;3.43;;;;;;;;;;5051014;28;20415;-71
2021/08/17 12:47:01;;;;;;;4.77;3.57;;;;;;;;;;5051022;28;20935;-71
2021/08/17 12:49:41;;;;;;;4.93;4.43;;;;;;;;;;5051078;28;20427;-71
2021/08/17 12:52:21;;;;;;;7.70;3.97;;;;;;;;;;5050927;28;20516;-72
2021/08/17 12:54:47;;;;;;;4.90;4.40;;;;;;;;;;5051094;28;20419;-72
2021/08/17 12:57:23;;;;;;;5.73;5.00;;;;;;;;;;5049417;28;20787;-71
2021/08/17 12:59:50;;;;;;;6.40;5.57;;;;;;;;;;5051158;28;20415;-70
2021/08/17 13:02:16;;;;;;;5.63;4.47;;;;;;;;;;5054685;28;20794;-71
2021/08/17 13:04:42;;;;;;;3.70;3.40;;;;;;;;;;5054438;28;20478;-72
2021/08/17 13:07:08;;;;;;;4.83;4.20;;;;;;;;;;5054456;28;20888;-72
2021/08/17 13:09:34;;;;;;;5.10;4.10;;;;;;;;;;5054687;28;20414;-72
2021/08/17 13:12:00;;;;;;;5.50;4.33;;;;;;;;;;5058524;28;20463;-71
2021/08/17 13:14:26;;;;;;;4.53;3.60;;;;;;;;;;5054968;28;20414;-71
2021/08/17 13:16:52;;;;;;;4.90;4.00;;;;;;;;;;5054638;28;20411;-71
2021/08/17 13:19:18;;;;;;;6.17;4.37;;;;;;;;;;5054629;28;20502;-71
2021/08/17 13:21:45;;;;;;;5.90;5.20;;;;;;;;;;5054483;28;20761;-72
2021/08/17 13:24:11;;;;;;;4.37;3.80;;;;;;;;;;5054660;28;20770;-71
2021/08/17 13:26:39;;;;;;;5.57;4.50;;;;;;;;;;5054215;28;20785;-70
2021/08/17 13:29:05;;;;;;;4.63;4.07;;;;;;;;;;5054690;28;20499;-70
2021/08/17 13:31:31;;;;;;;5.57;4.00;;;;;;;;;;5051693;28;20545;-70
2021/08/17 13:33:57;;;;;;;5.17;4.03;;;;;;;;;;5051597;28;20995;-70
2021/08/17 13:36:23;;;;;;;4.90;3.87;;;;;;;;;;5052799;28;20566;-70
2021/08/17 13:38:49;;;;;;;3.53;3.07;;;;;;;;;;5052851;28;20472;-69
2021/08/17 13:41:15;;;;;;;4.40;3.50;;;;;;;;;;5052588;28;20762;-68
2021/08/17 13:43:41;;;;;;;5.43;3.97;;;;;;;;;;5052785;28;20506;-70
2021/08/17 13:46:07;;;;;;;4.40;3.83;;;;;;;;;;5052967;28;20399;-69
2021/08/17 13:48:33;;;;;;;3.83;3.50;;;;;;;;;;5052908;28;20520;-70
2021/08/17 13:51:00;;;;;;;4.30;3.60;;;;;;;;;;5052717;28;20601;-70
2021/08/17 13:53:26;;;;;;;5.07;4.57;;;;;;;;;;5052721;28;20473;-70
2021/08/17 13:55:52;;;;;;;5.57;4.20;;;;;;;;;;5053163;28;20434;-71
2021/08/17 13:58:18;;;;;;;3.80;3.50;;;;;;;;;;5051791;28;20415;-71
2021/08/17 14:00:44;;;;;;;4.63;4.07;;;;;;;;;;5052261;28;20495;-71
2021/08/17 14:03:10;;;;;;;4.47;3.70;;;;;;;;;;5050914;28;20843;-71
2021/08/17 14:05:36;;;;;;;5.47;3.70;;;;;;;;;;5050846;28;20746;-72
2021/08/17 14:08:02;;;;;;;6.40;3.50;;;;;;;;;;5052195;28;20438;-72
2021/08/17 14:10:28;;;;;;;7.00;4.07;;;;;;;;;;5052277;28;20506;-71
2021/08/17 14:16:01;;;;;;;4.43;3.47;;;;;;;;;;5052048;28;20486;-71
2021/08/17 14:18:31;;;;;;;7.67;4.53;;;;;;;;;;5052012;28;20403;-70
2021/08/17 14:21:00;;;;;;;5.20;3.80;;;;;;;;;;5052060;28;20434;-71
2021/08/17 14:23:30;;;;;;;4.77;4.00;;;;;;;;;;5052320;28;20742;-71
2021/08/17 14:25:56;;;;;;;6.50;3.53;;;;;;;;;;5052343;28;20791;-71
2021/08/17 14:31:26;;;;;;;6.03;4.33;;;;;;;;;;5051942;28;20500;-71
2021/08/17 14:33:52;;;;;;;4.23;3.83;;;;;;;;;;5052016;28;20411;-72
2021/08/17 14:36:19;;;;;;;4.70;3.50;;;;;;;;;;5051508;28;20477;-71
2021/08/17 14:38:45;;;;;;;4.50;4.10;;;;;;;;;;5051759;28;20598;-71
2021/08/17 14:41:11;;;;;;;6.73;4.30;;;;;;;;;;5050300;28;20423;-70
2021/08/17 14:43:37;;;;;;;6.50;5.03;;;;;;;;;;5051324;28;20451;-71
2021/08/17 14:46:04;;;;;;;4.10;3.70;;;;;;;;;;5051483;28;20415;-71
2021/08/17 14:48:31;;;;;;;5.13;4.47;;;;;;;;;;5052331;28;20410;-72
2021/08/17 14:50:57;;;;;;;6.90;4.90;;;;;;;;;;5052551;28;20407;-72
2021/08/17 14:53:23;;;;;;;6.00;5.40;;;;;;;;;;5052329;28;20558;-72
2021/08/17 14:55:49;;;;;;;4.80;4.27;;;;;;;;;;5050136;28;20408;-72
2021/08/17 15:01:18;;;;;;;5.00;3.90;;;;;;;;;;5051085;28;20453;-71
2021/08/17 15:03:44;;;;;;;6.00;4.90;;;;;;;;;;5051340;28;20820;-71
2021/08/17 15:06:10;;;;;;;4.97;4.47;;;;;;;;;;5051096;28;20415;-71
2021/08/17 15:08:36;;;;;;;4.80;4.30;;;;;;;;;;5051177;28;20740;-72
2021/08/17 15:11:03;;;;;;;5.83;4.60;;;;;;;;;;5050824;28;20422;-71
2021/08/17 15:16:32;;;;;;;6.43;4.27;;;;;;;;;;5050872;28;20982;-71
2021/08/17 15:18:58;;;;;;;5.20;4.60;;;;;;;;;;5051985;28;20411;-71
2021/08/17 15:21:24;;;;;;;7.90;4.50;;;;;;;;;;5049048;28;20421;-71
2021/08/17 15:23:50;;;;;;;4.90;4.40;;;;;;;;;;5052102;28;20447;-71
2021/08/17 15:26:16;;;;;;;6.03;4.70;;;;;;;;;;5051566;28;20445;-72
2021/08/17 15:31:45;;;;;;;4.90;4.00;;;;;;;;;;5055920;28;20469;-72
2021/08/17 15:34:11;;;;;;;6.40;4.80;;;;;;;;;;5052318;28;20415;-72
2021/08/17 15:36:39;;;;;;;4.63;4.13;;;;;;;;;;5051347;28;20482;-71
2021/08/17 15:39:05;;;;;;;5.43;4.17;;;;;;;;;;5051889;28;20429;-71
2021/08/17 15:41:35;;;;;;;7.47;5.23;;;;;;;;;;5051708;28;20929;-70
2021/08/17 15:47:04;;;;;;;5.50;4.17;;;;;;;;;;5051542;28;20398;-71
2021/08/17 15:49:30;;;;;;;5.40;4.40;;;;;;;;;;5051906;28;20415;-71
2021/08/17 15:51:56;;;;;;;8.33;5.50;;;;;;;;;;5051361;28;20462;-71
2021/08/17 15:54:22;;;;;;;6.20;5.60;;;;;;;;;;5051364;28;20419;-72
2021/08/17 15:56:48;;;;;;;8.10;4.43;;;;;;;;;;5051257;28;20494;-71
2021/08/17 15:59:14;;;;;;;7.67;5.47;;;;;;;;;;5051319;28;20515;-71
2021/08/17 16:01:40;;;;;;;8.37;5.30;;;;;;;;;;5051334;28;20411;-71
2021/08/17 16:04:06;;;;;;;6.60;4.57;;;;;;;;;;5051320;28;20424;-72
2021/08/17 16:06:33;;;;;;;10.03;5.37;;;;;;;;;;5051250;28;20778;-71
2021/08/17 16:08:59;;;;;;;5.90;4.70;;;;;;;;;;5051285;28;20407;-71
2021/08/17 16:11:25;;;;;;;6.37;5.53;;;;;;;;;;5051337;28;20722;-72
2021/08/17 16:16:54;;;;;;;7.10;5.17;;;;;;;;;;5051172;28;20414;-71
2021/08/17 16:19:20;;;;;;;6.53;5.00;;;;;;;;;;5051349;28;20400;-71
2021/08/17 16:21:46;;;;;;;9.00;5.60;;;;;;;;;;5051525;28;20419;-72
2021/08/17 16:24:12;;;;;;;7.60;5.27;;;;;;;;;;5051117;28;20508;-71
2021/08/17 16:26:38;;;;;;;8.13;5.93;;;;;;;;;;5051073;28;20877;-72
2021/08/17 16:32:08;;;;;;;10.90;6.60;;;;;;;;;;5051031;28;20474;-71
2021/08/17 16:34:34;;;;;;;8.50;5.50;;;;;;;;;;5051236;28;20743;-71
2021/08/17 16:36:59;;;;;;;7.43;5.70;;;;;;;;;;5053957;28;20430;-71
2021/08/17 16:39:25;;;;;;;7.97;6.40;;;;;;;;;;5055017;28;20480;-71
2021/08/17 16:41:51;;;;;;;8.17;6.03;;;;;;;;;;5054905;28;20437;-71